Historyczne dane pomiarowe

Dodano dane terminowe – wersja testowa.

Dane z okresu 1951-2019

Wersja bazy: 1.34 [2019-03-16, lista zmian], aktualizacja planowana na 2019-04-15

Dane meteo z obszaru Polski uzyskane na podstawie danych udostępnionych przez Instytut Meteorologii i Gospodarki Wodnej – Państwowy Instytut Badawczy.

 

Wybierz Datę:    

       

TemperaturaWilgotnośćZachmurzenieWiatrCiśnienieWidzialnośćZjawiska
 Data    tng td wb rh cc ccl cl cm ch dir g1 g2 mslp ppp      
1999-08-06 00:00:00 17.0--- 14.2 15.384wxwxwxwx0wx--1013.5 971.8 0.0---wx
1999-08-06 01:00:00 16.1--- 14.1 14.988wxwxwx1wx--1013.3 971.5----wx
1999-08-06 02:00:00 16.4--- 14.6 15.389wxwxwx0wx--1013.0 971.2----wx
1999-08-06 03:00:00 15.4--- 13.9 14.591wxwxwx0wx--1013.0 971.1----wx
1999-08-06 04:00:00 14.7--- 14.0 14.396wxwxwxwx0wx--1013.2 971.2----wx
1999-08-06 05:00:00 15.3--- 13.5 14.289wxwxwxwxwx0wx--1013.3 971.3----wx
1999-08-06 06:00:00 15.9--- 14.3 14.990wxwxwxwx0wx--1013.1 971.2 0.0---wx
1999-08-06 07:00:00 21.2--- 15.0 17.368wxwxwxwxwx0wx--1012.3 971.2----wx
1999-08-06 08:00:00 22.6--- 15.4 18.064wxwxwxwxwx4wx--1012.1 971.2----wx
1999-08-06 09:00:00 23.5--- 14.8 18.058wxwxwxwxwx3wx--1011.9 971.1----wx
1999-08-06 10:00:00 24.0--- 14.7 18.156wxwxwxwxwx2wx--1011.9 971.2----wx
1999-08-06 11:00:00 24.7--- 15.0 18.555wxwxwxwx1wx--1011.3 970.7----wx
1999-08-06 12:00:00 23.7--- 16.1 18.862wxwxwx3wx--1011.6 970.9 0.0---wx
1999-08-06 13:00:00 25.0--- 15.7 19.056wxwxwxwx2wx--1011.1 970.6----wx
1999-08-06 14:00:00 25.1--- 14.9 18.653wxwxwxwx1wx--1010.8 970.3----wx
1999-08-06 15:00:00 24.7--- 13.2 17.649wxwxwx0wx--1010.6 970.0----wx
1999-08-06 16:00:00 25.6--- 13.6 18.147wxwxwx0wx--1010.0 969.6----wx
1999-08-06 17:00:00 24.6--- 13.9 17.951wxwxwxwx1wx--1010.0 969.5----wx
1999-08-06 18:00:00 23.6--- 17.4 19.568wxwxwxwxwx0wx--1010.0 969.3 0.0---wx
1999-08-06 19:00:00 23.3--- 18.2 19.973wxwxwx0wx--1010.1 969.4----wx
1999-08-06 20:00:00 18.2--- 14.8 16.181wxwxwx0wx--1011.1 969.6----wx
1999-08-06 21:00:00 16.7--- 14.4 15.386wxwxwx0wx--1011.3 969.6----wx
1999-08-06 22:00:00 16.7--- 14.4 15.386wxwxwx0wx--1011.3 969.6----wx
1999-08-06 23:00:00 15.4--- 13.9 14.591wxwxwx1wx--1011.1 969.2----wx

 

Źródłem pochodzenia danych jest Instytut Meteorologii i Gospodarki Wodnej – Państwowy Instytut Badawczy. Dane Instytutu Meteorologii i Gospodarki Wodnej – Państwowego Instytutu Badawczego zostały przetworzone.

Dane źródłowe można odnaleźć na stronie https://dane.imgw.pl